createdAt,value
2022-11-03T00:01:52.459Z,99721.72
2022-11-03T00:04:37.991Z,99719.13
2022-11-03T00:07:23.408Z,99716.53
2022-11-03T00:10:09.021Z,99732.94
2022-11-03T00:12:54.772Z,99737.25
2022-11-03T00:15:48.301Z,99745.00
2022-11-03T00:18:34.634Z,99739.84
2022-11-03T00:21:22.450Z,99732.06
2022-11-03T00:24:07.954Z,99733.75
2022-11-03T00:26:53.553Z,99747.53
2022-11-03T00:29:38.972Z,99741.47
2022-11-03T00:32:24.500Z,99731.06
2022-11-03T00:35:10.100Z,99741.47
2022-11-03T00:37:55.718Z,99731.97
2022-11-03T00:40:41.041Z,99730.28
2022-11-03T00:43:27.649Z,99721.63
2022-11-03T00:46:13.888Z,99730.28
2022-11-03T00:48:59.391Z,99722.50
2022-11-03T00:51:44.857Z,99725.09
2022-11-03T00:54:30.084Z,99719.94
2022-11-03T00:57:15.458Z,99711.31
2022-11-03T01:00:00.817Z,99704.44
2022-11-03T01:02:46.383Z,99701.81
2022-11-03T01:05:50.295Z,99694.06
2022-11-03T01:08:36.681Z,99687.16
2022-11-03T01:11:43.287Z,99693.22
2022-11-03T01:14:33.510Z,99689.75
2022-11-03T01:17:24.879Z,99687.16
2022-11-03T01:20:10.922Z,99684.56
2022-11-03T01:22:56.162Z,99673.34
2022-11-03T01:25:41.573Z,99669.00
2022-11-03T01:28:26.880Z,99664.69
2022-11-03T01:31:18.792Z,99658.66
2022-11-03T01:34:04.003Z,99656.06
2022-11-03T01:36:49.509Z,99645.72
2022-11-03T01:39:35.087Z,99647.47
2022-11-03T01:42:20.455Z,99641.44
2022-11-03T01:45:06.298Z,99639.75
2022-11-03T01:47:51.635Z,99638.00
2022-11-03T01:50:37.739Z,99625.91
2022-11-03T01:53:23.795Z,99625.03
2022-11-03T01:56:10.682Z,99627.63
2022-11-03T01:58:56.195Z,99631.91
2022-11-03T02:01:43.223Z,99628.47
2022-11-03T02:04:33.824Z,99624.97
2022-11-03T02:07:32.158Z,99631.84
2022-11-03T02:10:18.267Z,99626.63
2022-11-03T02:13:12.711Z,99627.47
2022-11-03T02:15:59.796Z,99612.75
2022-11-03T02:18:47.219Z,99623.06
2022-11-03T02:21:49.020Z,99625.63
2022-11-03T02:24:53.823Z,99615.22
2022-11-03T02:27:40.928Z,99616.91
2022-11-03T02:30:38.835Z,99613.41
2022-11-03T02:33:45.497Z,99613.34
2022-11-03T02:36:33.085Z,99612.44
2022-11-03T02:39:29.078Z,99621.84
2022-11-03T02:42:17.887Z,99623.56
2022-11-03T02:45:11.914Z,99621.78
2022-11-03T02:48:03.224Z,99622.66
2022-11-03T02:50:49.376Z,99620.03
2022-11-03T02:53:42.654Z,99624.34
2022-11-03T02:56:32.529Z,99624.28
2022-11-03T02:59:27.807Z,99634.56
2022-11-03T03:02:19.941Z,99631.13
2022-11-03T03:05:10.433Z,99632.00
2022-11-03T03:08:02.129Z,99629.34
2022-11-03T03:10:49.019Z,99625.97
2022-11-03T03:13:34.351Z,99618.19
2022-11-03T03:16:32.571Z,99620.75
2022-11-03T03:19:39.468Z,99606.34
2022-11-03T03:22:32.229Z,99600.44
2022-11-03T03:25:38.792Z,99590.13
2022-11-03T03:28:31.469Z,99585.88
2022-11-03T03:31:19.876Z,99579.84
2022-11-03T03:34:23.739Z,99568.56
2022-11-03T03:37:16.162Z,99569.41
2022-11-03T03:40:05.563Z,99564.22
2022-11-03T03:42:52.233Z,99552.19
2022-11-03T03:45:38.753Z,99556.44
2022-11-03T03:48:24.497Z,99553.09
2022-11-03T03:51:12.823Z,99552.22
2022-11-03T03:53:58.519Z,99548.75
2022-11-03T03:56:49.127Z,99549.69
2022-11-03T03:59:34.839Z,99541.06
2022-11-03T04:02:20.423Z,99547.06
2022-11-03T04:05:06.284Z,99541.84
2022-11-03T04:07:52.032Z,99539.28
2022-11-03T04:10:37.657Z,99545.25
2022-11-03T04:13:41.420Z,99540.09
2022-11-03T04:16:45.665Z,99529.72
2022-11-03T04:19:49.786Z,99532.31
2022-11-03T04:22:35.254Z,99539.13
2022-11-03T04:25:20.670Z,99535.59
2022-11-03T04:28:12.785Z,99534.69
2022-11-03T04:31:01.695Z,99542.41
2022-11-03T04:33:48.345Z,99536.25
2022-11-03T04:36:34.063Z,99535.25
2022-11-03T04:39:20.798Z,99535.22
2022-11-03T04:42:35.802Z,99542.84
2022-11-03T04:45:28.784Z,99541.78
2022-11-03T04:48:19.827Z,99543.44
2022-11-03T04:51:20.178Z,99543.31
2022-11-03T04:54:23.585Z,99544.88
2022-11-03T04:57:13.200Z,99550.00
2022-11-03T04:59:58.900Z,99549.13
2022-11-03T05:02:49.055Z,99555.97
2022-11-03T05:05:37.437Z,99561.16
2022-11-03T05:08:24.393Z,99569.75
2022-11-03T05:11:21.272Z,99564.69
2022-11-03T05:14:22.219Z,99566.50
2022-11-03T05:17:22.223Z,99563.06
2022-11-03T05:20:34.656Z,99555.16
2022-11-03T05:23:22.995Z,99548.13
2022-11-03T05:26:18.359Z,99552.47
2022-11-03T05:29:13.474Z,99546.31
2022-11-03T05:31:59.038Z,99549.56
2022-11-03T05:34:48.242Z,99545.22
2022-11-03T05:37:35.660Z,99541.66
2022-11-03T05:40:26.137Z,99549.34
2022-11-03T05:43:14.799Z,99544.31
2022-11-03T05:46:03.326Z,99540.97
2022-11-03T05:48:49.609Z,99547.75
2022-11-03T05:51:41.988Z,99536.53
2022-11-03T05:54:32.099Z,99537.25
2022-11-03T05:57:18.395Z,99538.03
2022-11-03T06:00:05.275Z,99534.53
2022-11-03T06:02:59.073Z,99531.97
2022-11-03T06:05:44.571Z,99522.72
2022-11-03T06:08:39.032Z,99522.75
2022-11-03T06:11:31.613Z,99513.22
2022-11-03T06:14:24.661Z,99507.16
2022-11-03T06:17:21.625Z,99507.38
2022-11-03T06:20:15.193Z,99518.66
2022-11-03T06:23:00.995Z,99509.09
2022-11-03T06:25:46.977Z,99515.91
2022-11-03T06:28:39.297Z,99504.63
2022-11-03T06:31:28.170Z,99509.63
2022-11-03T06:34:34.723Z,99497.22
2022-11-03T06:37:34.957Z,99500.69
2022-11-03T06:40:20.162Z,99504.09
2022-11-03T06:43:22.845Z,99506.66
2022-11-03T06:46:34.506Z,99508.38
2022-11-03T06:49:23.050Z,99508.44
2022-11-03T06:52:26.105Z,99508.56
2022-11-03T06:55:13.987Z,99503.34
2022-11-03T06:58:12.535Z,99501.66
2022-11-03T07:01:03.473Z,99510.28
2022-11-03T07:03:52.604Z,99501.81
2022-11-03T07:06:38.154Z,99497.03
2022-11-03T07:09:27.892Z,99502.38
2022-11-03T07:12:18.624Z,99500.81
2022-11-03T07:15:11.257Z,99499.19
2022-11-03T07:17:57.666Z,99497.66
2022-11-03T07:20:43.289Z,99489.19
2022-11-03T07:23:31.001Z,99490.03
2022-11-03T07:26:16.776Z,99484.88
2022-11-03T07:29:02.496Z,99479.75
2022-11-03T07:31:49.624Z,99482.28
2022-11-03T07:34:35.303Z,99478.75
2022-11-03T07:37:24.445Z,99481.25
2022-11-03T07:40:23.631Z,99475.28
2022-11-03T07:43:28.293Z,99470.91
2022-11-03T07:46:19.822Z,99471.69
2022-11-03T07:49:09.118Z,99475.13
2022-11-03T07:51:57.530Z,99468.16
2022-11-03T07:54:43.473Z,99462.94
2022-11-03T07:57:30.736Z,99459.56
2022-11-03T08:00:22.812Z,99468.16
2022-11-03T08:03:41.359Z,99461.13
2022-11-03T08:06:27.305Z,99460.19
2022-11-03T08:09:12.895Z,99460.22
2022-11-03T08:11:58.504Z,99465.28
2022-11-03T08:14:44.168Z,99464.44
2022-11-03T08:17:29.998Z,99461.06
2022-11-03T08:20:15.561Z,99467.97
2022-11-03T08:26:06.696Z,99464.81
2022-11-03T08:28:52.392Z,99464.13
2022-11-03T08:31:38.231Z,99459.97
2022-11-03T08:34:23.697Z,99460.88
2022-11-03T08:37:09.032Z,99469.44
2022-11-03T08:39:54.467Z,99462.69
2022-11-03T08:42:39.985Z,99454.25
2022-11-03T08:45:25.602Z,99458.63
2022-11-03T08:48:10.914Z,99457.00
2022-11-03T08:50:56.718Z,99456.25
2022-11-03T08:53:43.163Z,99457.25
2022-11-03T08:56:28.743Z,99463.41
2022-11-03T08:59:14.516Z,99456.63
2022-11-03T09:01:59.933Z,99452.41
2022-11-03T09:04:45.367Z,99457.66
2022-11-03T09:10:38.416Z,99452.59
2022-11-03T09:13:28.096Z,99453.50
2022-11-03T09:16:13.748Z,99451.78
2022-11-03T09:18:59.277Z,99447.50
2022-11-03T09:21:44.565Z,99443.16
2022-11-03T09:24:30.991Z,99438.03
2022-11-03T09:27:16.299Z,99431.97
2022-11-03T09:30:16.964Z,99431.06
2022-11-03T09:33:02.336Z,99428.41
2022-11-03T09:35:47.528Z,99434.41
2022-11-03T09:38:33.090Z,99426.59
2022-11-03T09:41:26.229Z,99422.22
2022-11-03T09:44:13.862Z,99417.88
2022-11-03T09:46:59.985Z,99409.22
2022-11-03T09:49:45.719Z,99413.50
2022-11-03T09:52:32.137Z,99410.03
2022-11-03T09:55:26.321Z,99410.81
2022-11-03T09:58:17.490Z,99403.00
2022-11-03T10:01:03.191Z,99399.44
2022-11-03T10:03:48.725Z,99401.97
2022-11-03T10:06:34.050Z,99398.44
2022-11-03T10:09:20.844Z,99391.50
2022-11-03T10:12:09.332Z,99395.75
2022-11-03T10:14:55.524Z,99405.97
2022-11-03T10:17:42.079Z,99398.13
2022-11-03T10:20:29.336Z,99412.69
2022-11-03T10:23:14.903Z,99390.03
2022-11-03T10:26:10.097Z,99393.34
2022-11-03T10:29:04.244Z,99387.16
2022-11-03T10:31:52.495Z,99389.69
2022-11-03T10:34:39.597Z,99389.69
2022-11-03T10:37:26.876Z,99379.25
2022-11-03T10:40:51.981Z,99380.84
2022-11-03T10:43:39.822Z,99373.75
2022-11-03T10:49:39.205Z,99368.25
2022-11-03T10:52:30.081Z,99361.22
2022-11-03T10:55:19.178Z,99364.59
2022-11-03T10:58:08.060Z,99362.72
2022-11-03T11:00:54.012Z,99352.97
2022-11-03T11:03:44.868Z,99353.69
2022-11-03T11:06:31.365Z,99351.09
2022-11-03T11:09:28.146Z,99352.72
2022-11-03T11:12:25.084Z,99336.16
2022-11-03T11:15:44.667Z,99327.22
2022-11-03T11:18:30.155Z,99311.50
2022-11-03T11:21:15.812Z,99314.91
2022-11-03T11:24:01.433Z,99305.31
2022-11-03T11:26:48.176Z,99306.13
2022-11-03T11:29:36.064Z,99301.63
2022-11-03T11:32:39.666Z,99311.94
2022-11-03T11:35:27.888Z,99320.63
2022-11-03T11:38:45.508Z,99313.56
2022-11-03T11:42:09.942Z,99310.63
2022-11-03T11:45:00.204Z,99310.06
2022-11-03T11:47:48.336Z,99313.00
2022-11-03T11:50:34.313Z,99307.31
2022-11-03T11:53:26.276Z,99294.00
2022-11-03T11:56:16.867Z,99285.09
2022-11-03T11:59:02.968Z,99277.38
2022-11-03T12:01:53.653Z,99267.91
2022-11-03T12:04:39.094Z,99274.06
2022-11-03T12:07:35.416Z,99273.81
2022-11-03T12:10:26.277Z,99269.34
2022-11-03T12:13:52.579Z,99277.06
2022-11-03T12:16:38.300Z,99275.28
2022-11-03T12:19:46.691Z,99273.44
2022-11-03T12:22:40.238Z,99272.59
2022-11-03T12:25:37.201Z,99278.53
2022-11-03T12:28:36.468Z,99271.69
2022-11-03T12:31:21.932Z,99271.75
2022-11-03T12:34:07.490Z,99275.25
2022-11-03T12:36:56.160Z,99264.88
2022-11-03T12:39:42.147Z,99270.22
2022-11-03T12:42:27.472Z,99261.66
2022-11-03T12:45:13.810Z,99264.31
2022-11-03T12:47:59.968Z,99267.00
2022-11-03T12:50:45.474Z,99262.09
2022-11-03T12:53:30.997Z,99268.22
2022-11-03T12:56:18.194Z,99261.25
2022-11-03T12:59:03.771Z,99264.59
2022-11-03T13:01:49.286Z,99267.16
2022-11-03T13:04:34.964Z,99252.50
2022-11-03T13:07:25.765Z,99246.44
2022-11-03T13:10:13.132Z,99249.66
2022-11-03T13:12:58.872Z,99253.97
2022-11-03T13:15:44.320Z,99252.91
2022-11-03T13:18:29.717Z,99244.91
2022-11-03T13:21:14.949Z,99240.31
2022-11-03T13:24:00.341Z,99244.34
2022-11-03T13:26:45.796Z,99243.28
2022-11-03T13:29:35.369Z,99230.06
2022-11-03T13:32:21.421Z,99231.66
2022-11-03T13:35:12.424Z,99237.56
2022-11-03T13:37:59.003Z,99230.59
2022-11-03T13:41:05.238Z,99232.31
2022-11-03T13:43:49.809Z,99227.97
2022-11-03T13:46:35.388Z,99234.03
2022-11-03T13:49:59.352Z,99237.66
2022-11-03T13:52:28.647Z,99225.72
2022-11-03T14:01:24.936Z,99218.47
2022-11-03T14:07:16.146Z,99219.72
2022-11-03T14:10:03.862Z,99223.25
2022-11-03T14:12:50.122Z,99222.47
2022-11-03T14:15:35.904Z,99223.41
2022-11-03T14:18:21.469Z,99224.28
2022-11-03T14:21:06.823Z,99217.59
2022-11-03T14:23:52.678Z,99218.63
2022-11-03T14:26:42.542Z,99213.47
2022-11-03T14:29:28.737Z,99204.09
2022-11-03T14:32:14.203Z,99206.81
2022-11-03T14:34:59.853Z,99206.81
2022-11-03T14:37:45.437Z,99199.84
2022-11-03T14:40:49.324Z,99196.41
2022-11-03T14:43:35.339Z,99196.31
2022-11-03T14:46:20.977Z,99186.81
2022-11-03T14:49:06.712Z,99186.72
2022-11-03T14:51:52.105Z,99182.28
2022-11-03T14:54:37.705Z,99189.41
2022-11-03T14:57:23.217Z,99186.75
2022-11-03T15:00:11.302Z,99186.00
2022-11-03T15:02:56.901Z,99184.41
2022-11-03T15:05:45.761Z,99198.38
2022-11-03T15:08:32.477Z,99195.88
2022-11-03T15:11:18.251Z,99208.91
2022-11-03T15:14:04.044Z,99213.31
2022-11-03T15:16:49.623Z,99206.53
2022-11-03T15:19:34.913Z,99213.44
2022-11-03T15:22:20.445Z,99212.59
2022-11-03T15:27:55.014Z,99213.47
2022-11-03T15:30:40.406Z,99210.06
2022-11-03T15:33:26.347Z,99216.16
2022-11-03T15:36:12.394Z,99221.44
2022-11-03T15:38:58.342Z,99231.97
2022-11-03T15:41:44.055Z,99239.09
2022-11-03T15:44:30.085Z,99232.22
2022-11-03T15:47:15.763Z,99236.81
2022-11-03T15:50:01.775Z,99243.03
2022-11-03T15:52:47.467Z,99249.41
2022-11-03T15:55:32.824Z,99250.50
2022-11-03T15:58:18.634Z,99260.13
2022-11-03T16:01:05.225Z,99270.75
2022-11-03T16:03:51.228Z,99270.03
2022-11-03T16:07:06.313Z,99274.53
2022-11-03T16:09:42.665Z,99283.38
2022-11-03T16:12:28.065Z,99284.38
2022-11-03T16:15:13.516Z,99294.81
2022-11-03T16:18:02.910Z,99298.38
2022-11-03T16:20:48.528Z,99296.69
2022-11-03T16:23:33.857Z,99294.06
2022-11-03T16:26:24.264Z,99307.97
2022-11-03T16:29:09.661Z,99307.94
2022-11-03T16:31:55.134Z,99314.00
2022-11-03T16:34:40.626Z,99316.59
2022-11-03T16:37:29.323Z,99315.75
2022-11-03T16:40:19.128Z,99324.50
2022-11-03T16:43:05.180Z,99335.84
2022-11-03T16:45:50.677Z,99348.94
2022-11-03T16:48:36.360Z,99357.69
2022-11-03T16:51:22.393Z,99362.06
2022-11-03T16:54:07.662Z,99365.56
2022-11-03T16:56:54.812Z,99367.34
2022-11-03T16:59:40.549Z,99362.22
2022-11-03T17:02:28.561Z,99372.72
2022-11-03T17:05:16.745Z,99378.91
2022-11-03T17:08:02.372Z,99385.88
2022-11-03T17:10:47.910Z,99392.00
2022-11-03T17:13:33.445Z,99400.72
2022-11-03T17:16:19.009Z,99400.81
2022-11-03T17:19:04.803Z,99408.69
2022-11-03T17:21:50.586Z,99421.63
2022-11-03T17:24:36.087Z,99422.25
2022-11-03T17:27:38.323Z,99426.34
2022-11-03T17:30:28.394Z,99450.53
2022-11-03T17:33:17.523Z,99454.00
2022-11-03T17:36:02.903Z,99449.78
2022-11-03T17:38:48.606Z,99447.19
2022-11-03T17:41:36.802Z,99446.31
2022-11-03T17:44:22.185Z,99451.53
2022-11-03T17:47:08.028Z,99452.44
2022-11-03T17:49:53.414Z,99463.72
2022-11-03T17:52:39.034Z,99474.09
2022-11-03T17:55:30.494Z,99478.41
2022-11-03T17:58:16.630Z,99489.69
2022-11-03T18:01:02.610Z,99500.06
2022-11-03T18:03:48.176Z,99507.00
2022-11-03T18:06:34.041Z,99507.88
2022-11-03T18:09:19.596Z,99512.19
2022-11-03T18:12:23.698Z,99521.75
2022-11-03T18:15:19.792Z,99525.19
2022-11-03T18:18:15.818Z,99529.53
2022-11-03T18:21:01.987Z,99545.13
2022-11-03T18:23:47.820Z,99549.44
2022-11-03T18:26:33.043Z,99558.91
2022-11-03T18:29:18.596Z,99581.34
2022-11-03T18:32:03.958Z,99581.34
2022-11-03T18:34:49.633Z,99588.16
2022-11-03T18:37:35.928Z,99594.31
2022-11-03T18:40:21.649Z,99604.78
2022-11-03T18:43:13.711Z,99608.25
2022-11-03T18:45:59.298Z,99612.66
2022-11-03T18:48:44.685Z,99623.94
2022-11-03T18:51:30.051Z,99613.50
2022-11-03T18:57:12.265Z,99632.56
2022-11-03T18:59:58.121Z,99642.91
2022-11-03T19:02:43.700Z,99649.75
2022-11-03T19:05:29.923Z,99654.25
2022-11-03T19:08:21.077Z,99669.09
2022-11-03T19:11:06.742Z,99676.00
2022-11-03T19:13:52.628Z,99678.59
2022-11-03T19:16:45.830Z,99691.59
2022-11-03T19:19:41.416Z,99696.78
2022-11-03T19:22:27.280Z,99701.97
2022-11-03T19:25:14.681Z,99716.69
2022-11-03T19:28:00.029Z,99724.53
2022-11-03T19:30:45.667Z,99720.22
2022-11-03T19:33:31.575Z,99729.81
2022-11-03T19:36:18.379Z,99734.22
2022-11-03T19:39:05.247Z,99740.31
2022-11-03T19:42:10.749Z,99743.00
2022-11-03T19:44:58.782Z,99749.09
2022-11-03T19:48:23.191Z,99764.69
2022-11-03T19:51:07.686Z,99769.06
2022-11-03T19:53:53.412Z,99775.16
2022-11-03T19:56:39.415Z,99784.66
2022-11-03T19:59:26.377Z,99795.91
2022-11-03T20:02:13.611Z,99806.31
2022-11-03T20:04:59.835Z,99805.44
2022-11-03T20:07:46.889Z,99822.78
2022-11-03T20:10:36.014Z,99834.00
2022-11-03T20:13:29.247Z,99846.09
2022-11-03T20:16:17.314Z,99859.06
2022-11-03T20:19:03.452Z,99861.66
2022-11-03T20:21:49.155Z,99873.75
2022-11-03T20:24:34.792Z,99885.84
2022-11-03T20:27:21.652Z,99887.56
2022-11-03T20:30:13.114Z,99897.09
2022-11-03T20:32:58.695Z,99900.53
2022-11-03T20:35:46.217Z,99913.50
2022-11-03T20:38:33.372Z,99920.41
2022-11-03T20:41:19.069Z,99923.84
2022-11-03T20:44:04.820Z,99935.09
2022-11-03T20:46:50.415Z,99947.16
2022-11-03T20:49:36.120Z,99953.19
2022-11-03T20:52:21.946Z,99966.13
2022-11-03T20:55:23.429Z,99979.94
2022-11-03T20:58:15.938Z,99986.84
2022-11-03T21:01:02.034Z,99996.31
2022-11-03T21:04:03.095Z,100008.41
2022-11-03T21:06:48.742Z,100021.28
2022-11-03T21:09:34.548Z,100024.72
2022-11-03T21:12:20.114Z,100029.00
2022-11-03T21:15:52.255Z,100035.00
2022-11-03T21:19:01.784Z,100043.63
2022-11-03T21:21:47.666Z,100051.41
2022-11-03T21:24:33.488Z,100058.28
2022-11-03T21:27:19.268Z,100076.34
2022-11-03T21:30:05.863Z,100087.53
2022-11-03T21:32:51.881Z,100096.19
2022-11-03T21:35:38.698Z,100095.38
2022-11-03T21:38:24.370Z,100107.41
2022-11-03T21:41:28.646Z,100111.69
2022-11-03T21:44:17.592Z,100118.56
2022-11-03T21:47:03.559Z,100122.88
2022-11-03T21:49:49.655Z,100142.66
2022-11-03T21:52:35.656Z,100148.66
2022-11-03T21:55:21.623Z,100159.84
2022-11-03T21:58:07.875Z,100171.06
2022-11-03T22:00:53.833Z,100177.88
2022-11-03T22:03:39.592Z,100199.44
2022-11-03T22:06:25.819Z,100203.75
2022-11-03T22:09:11.321Z,100220.97
2022-11-03T22:11:56.837Z,100224.38
2022-11-03T22:15:01.234Z,100234.72
2022-11-03T22:17:46.994Z,100236.34
2022-11-03T22:20:51.279Z,100242.34
2022-11-03T22:24:14.964Z,100256.09
2022-11-03T22:27:00.708Z,100263.81
2022-11-03T22:30:04.958Z,100276.69
2022-11-03T22:32:55.594Z,100286.09
2022-11-03T22:35:59.792Z,100289.47
2022-11-03T22:39:03.923Z,100296.28
2022-11-03T22:42:08.125Z,100315.28
2022-11-03T22:45:12.043Z,100318.63
2022-11-03T22:47:57.867Z,100313.47
2022-11-03T22:50:44.474Z,100315.13
2022-11-03T22:53:50.083Z,100323.72
2022-11-03T22:56:35.600Z,100321.09
2022-11-03T22:59:21.077Z,100332.34
2022-11-03T23:02:06.763Z,100340.91
2022-11-03T23:04:52.257Z,100341.81
2022-11-03T23:07:41.264Z,100343.50
2022-11-03T23:10:28.549Z,100358.94
2022-11-03T23:13:13.759Z,100378.84
2022-11-03T23:15:59.152Z,100389.22
2022-11-03T23:19:03.483Z,100385.81
2022-11-03T23:21:50.705Z,100388.44
2022-11-03T23:24:54.838Z,100387.66
2022-11-03T23:27:40.522Z,100382.38
2022-11-03T23:30:25.699Z,100382.34
2022-11-03T23:33:11.309Z,100378.75
2022-11-03T23:35:56.987Z,100384.72
2022-11-03T23:38:42.941Z,100394.16
2022-11-03T23:41:29.273Z,100401.13
2022-11-03T23:44:16.271Z,100410.63
2022-11-03T23:47:20.547Z,100402.00
2022-11-03T23:50:06.625Z,100407.09
2022-11-03T23:52:51.912Z,100411.47
2022-11-03T23:55:57.154Z,100407.25
2022-11-03T23:58:42.779Z,100411.47
